sensor_id;sensor_type;location;lat;lon;timestamp;P1;durP1;ratioP1;P2;durP2;ratioP2
52610;SDS011;38727;40.130;18.292;2022-07-10T00:01:25;6.50;;;2.47;;
52610;SDS011;38727;40.130;18.292;2022-07-10T00:03:54;4.45;;;2.45;;
52610;SDS011;38727;40.130;18.292;2022-07-10T00:06:25;4.13;;;1.83;;
52610;SDS011;38727;40.130;18.292;2022-07-10T00:08:55;5.03;;;1.95;;
52610;SDS011;38727;40.130;18.292;2022-07-10T00:11:29;3.03;;;2.25;;
52610;SDS011;38727;40.130;18.292;2022-07-10T00:13:58;6.97;;;2.17;;
52610;SDS011;38727;40.130;18.292;2022-07-10T00:16:33;4.47;;;2.22;;
52610;SDS011;38727;40.130;18.292;2022-07-10T00:19:08;8.32;;;2.47;;
52610;SDS011;38727;40.130;18.292;2022-07-10T00:21:45;2.58;;;2.20;;
52610;SDS011;38727;40.130;18.292;2022-07-10T00:24:14;5.55;;;2.40;;
52610;SDS011;38727;40.130;18.292;2022-07-10T00:26:48;5.25;;;2.47;;
52610;SDS011;38727;40.130;18.292;2022-07-10T00:29:23;2.78;;;1.80;;
52610;SDS011;38727;40.130;18.292;2022-07-10T00:31:57;3.35;;;2.30;;
52610;SDS011;38727;40.130;18.292;2022-07-10T00:34:26;5.85;;;2.30;;
52610;SDS011;38727;40.130;18.292;2022-07-10T00:36:57;6.47;;;2.42;;
52610;SDS011;38727;40.130;18.292;2022-07-10T00:39:32;3.17;;;2.13;;
52610;SDS011;38727;40.130;18.292;2022-07-10T00:42:07;3.20;;;2.30;;
52610;SDS011;38727;40.130;18.292;2022-07-10T00:44:37;3.85;;;2.35;;
52610;SDS011;38727;40.130;18.292;2022-07-10T00:47:07;6.60;;;2.03;;
52610;SDS011;38727;40.130;18.292;2022-07-10T00:49:43;3.58;;;2.30;;
52610;SDS011;38727;40.130;18.292;2022-07-10T00:52:19;3.65;;;2.08;;
52610;SDS011;38727;40.130;18.292;2022-07-10T00:54:48;5.15;;;2.00;;
52610;SDS011;38727;40.130;18.292;2022-07-10T00:57:24;2.75;;;2.28;;
52610;SDS011;38727;40.130;18.292;2022-07-10T00:59:56;3.65;;;2.20;;
52610;SDS011;38727;40.130;18.292;2022-07-10T01:02:26;4.85;;;2.20;;
52610;SDS011;38727;40.130;18.292;2022-07-10T01:05:01;5.25;;;2.83;;
52610;SDS011;38727;40.130;18.292;2022-07-10T01:07:37;2.90;;;2.10;;
52610;SDS011;38727;40.130;18.292;2022-07-10T01:10:12;5.85;;;2.33;;
52610;SDS011;38727;40.130;18.292;2022-07-10T01:12:41;4.18;;;2.50;;
52610;SDS011;38727;40.130;18.292;2022-07-10T01:15:11;4.70;;;2.30;;
52610;SDS011;38727;40.130;18.292;2022-07-10T01:17:40;6.00;;;2.40;;
52610;SDS011;38727;40.130;18.292;2022-07-10T01:20:10;4.15;;;2.55;;
52610;SDS011;38727;40.130;18.292;2022-07-10T01:22:42;4.05;;;2.60;;
52610;SDS011;38727;40.130;18.292;2022-07-10T01:25:11;6.32;;;2.92;;
52610;SDS011;38727;40.130;18.292;2022-07-10T01:27:46;4.05;;;2.28;;
52610;SDS011;38727;40.130;18.292;2022-07-10T01:30:20;10.77;;;4.50;;
52610;SDS011;38727;40.130;18.292;2022-07-10T01:32:55;4.07;;;2.65;;
52610;SDS011;38727;40.130;18.292;2022-07-10T01:35:29;4.35;;;2.42;;
52610;SDS011;38727;40.130;18.292;2022-07-10T01:38:00;5.18;;;2.35;;
52610;SDS011;38727;40.130;18.292;2022-07-10T01:40:29;3.92;;;2.40;;
52610;SDS011;38727;40.130;18.292;2022-07-10T01:42:59;5.63;;;2.47;;
52610;SDS011;38727;40.130;18.292;2022-07-10T01:45:28;4.63;;;2.28;;
52610;SDS011;38727;40.130;18.292;2022-07-10T01:47:58;5.72;;;2.45;;
52610;SDS011;38727;40.130;18.292;2022-07-10T01:50:28;3.72;;;2.33;;
52610;SDS011;38727;40.130;18.292;2022-07-10T01:52:57;3.78;;;2.35;;
52610;SDS011;38727;40.130;18.292;2022-07-10T01:55:33;4.43;;;2.40;;
52610;SDS011;38727;40.130;18.292;2022-07-10T01:58:04;2.55;;;2.00;;
52610;SDS011;38727;40.130;18.292;2022-07-10T02:00:33;4.88;;;2.50;;
52610;SDS011;38727;40.130;18.292;2022-07-10T02:03:08;5.55;;;2.03;;
52610;SDS011;38727;40.130;18.292;2022-07-10T02:06:00;3.33;;;2.58;;
52610;SDS011;38727;40.130;18.292;2022-07-10T02:08:34;5.20;;;2.50;;
52610;SDS011;38727;40.130;18.292;2022-07-10T02:11:05;4.72;;;2.35;;
52610;SDS011;38727;40.130;18.292;2022-07-10T02:13:35;3.83;;;2.85;;
52610;SDS011;38727;40.130;18.292;2022-07-10T02:16:09;3.63;;;2.53;;
52610;SDS011;38727;40.130;18.292;2022-07-10T02:18:38;3.40;;;2.20;;
52610;SDS011;38727;40.130;18.292;2022-07-10T02:21:12;2.65;;;2.08;;
52610;SDS011;38727;40.130;18.292;2022-07-10T02:23:42;3.88;;;2.78;;
52610;SDS011;38727;40.130;18.292;2022-07-10T02:26:18;4.63;;;2.33;;
52610;SDS011;38727;40.130;18.292;2022-07-10T02:28:53;2.58;;;2.20;;
52610;SDS011;38727;40.130;18.292;2022-07-10T02:31:28;3.67;;;2.08;;
52610;SDS011;38727;40.130;18.292;2022-07-10T02:34:02;3.40;;;2.70;;
52610;SDS011;38727;40.130;18.292;2022-07-10T02:36:37;4.05;;;2.13;;
52610;SDS011;38727;40.130;18.292;2022-07-10T02:39:07;3.03;;;2.60;;
52610;SDS011;38727;40.130;18.292;2022-07-10T02:41:38;3.55;;;2.33;;
52610;SDS011;38727;40.130;18.292;2022-07-10T02:44:11;3.03;;;2.55;;
52610;SDS011;38727;40.130;18.292;2022-07-10T02:46:40;3.13;;;2.33;;
52610;SDS011;38727;40.130;18.292;2022-07-10T02:49:10;4.22;;;2.22;;
52610;SDS011;38727;40.130;18.292;2022-07-10T02:51:44;4.03;;;2.30;;
52610;SDS011;38727;40.130;18.292;2022-07-10T02:54:18;2.67;;;2.30;;
52610;SDS011;38727;40.130;18.292;2022-07-10T02:56:49;3.67;;;2.50;;
52610;SDS011;38727;40.130;18.292;2022-07-10T02:59:27;3.10;;;2.30;;
52610;SDS011;38727;40.130;18.292;2022-07-10T03:01:57;4.75;;;2.70;;
52610;SDS011;38727;40.130;18.292;2022-07-10T03:04:32;3.75;;;2.85;;
52610;SDS011;38727;40.130;18.292;2022-07-10T03:07:02;4.82;;;2.40;;
52610;SDS011;38727;40.130;18.292;2022-07-10T03:09:36;2.75;;;2.42;;
52610;SDS011;38727;40.130;18.292;2022-07-10T03:12:08;2.45;;;2.25;;
52610;SDS011;38727;40.130;18.292;2022-07-10T03:14:42;2.95;;;2.17;;
52610;SDS011;38727;40.130;18.292;2022-07-10T03:17:11;3.78;;;2.53;;
52610;SDS011;38727;40.130;18.292;2022-07-10T03:19:45;3.05;;;2.38;;
52610;SDS011;38727;40.130;18.292;2022-07-10T03:22:20;3.40;;;2.60;;
52610;SDS011;38727;40.130;18.292;2022-07-10T03:24:54;5.85;;;3.40;;
52610;SDS011;38727;40.130;18.292;2022-07-10T03:27:30;5.85;;;3.20;;
52610;SDS011;38727;40.130;18.292;2022-07-10T03:30:00;6.30;;;3.20;;
52610;SDS011;38727;40.130;18.292;2022-07-10T03:32:29;5.10;;;2.83;;
52610;SDS011;38727;40.130;18.292;2022-07-10T03:35:04;6.45;;;3.35;;
52610;SDS011;38727;40.130;18.292;2022-07-10T03:37:39;4.70;;;2.72;;
52610;SDS011;38727;40.130;18.292;2022-07-10T03:40:09;5.85;;;3.00;;
52610;SDS011;38727;40.130;18.292;2022-07-10T03:42:45;4.40;;;2.92;;
52610;SDS011;38727;40.130;18.292;2022-07-10T03:45:19;5.00;;;2.70;;
52610;SDS011;38727;40.130;18.292;2022-07-10T03:47:49;4.13;;;2.67;;
52610;SDS011;38727;40.130;18.292;2022-07-10T03:50:23;5.35;;;3.28;;
52610;SDS011;38727;40.130;18.292;2022-07-10T03:52:53;3.25;;;2.95;;
52610;SDS011;38727;40.130;18.292;2022-07-10T03:55:22;3.13;;;2.53;;
52610;SDS011;38727;40.130;18.292;2022-07-10T03:57:53;5.32;;;2.63;;
52610;SDS011;38727;40.130;18.292;2022-07-10T04:00:22;4.28;;;2.70;;
52610;SDS011;38727;40.130;18.292;2022-07-10T04:02:55;5.72;;;3.22;;
52610;SDS011;38727;40.130;18.292;2022-07-10T04:05:30;4.72;;;2.97;;
52610;SDS011;38727;40.130;18.292;2022-07-10T04:08:05;3.63;;;2.70;;
52610;SDS011;38727;40.130;18.292;2022-07-10T04:10:41;4.20;;;2.88;;
52610;SDS011;38727;40.130;18.292;2022-07-10T04:13:17;5.30;;;3.13;;
52610;SDS011;38727;40.130;18.292;2022-07-10T04:15:47;4.90;;;2.70;;
52610;SDS011;38727;40.130;18.292;2022-07-10T04:18:17;6.63;;;3.25;;
52610;SDS011;38727;40.130;18.292;2022-07-10T04:20:46;3.75;;;2.80;;
52610;SDS011;38727;40.130;18.292;2022-07-10T04:23:20;4.70;;;3.17;;
52610;SDS011;38727;40.130;18.292;2022-07-10T04:25:56;7.15;;;3.28;;
52610;SDS011;38727;40.130;18.292;2022-07-10T04:28:34;7.20;;;3.30;;
52610;SDS011;38727;40.130;18.292;2022-07-10T04:31:03;5.93;;;3.35;;
52610;SDS011;38727;40.130;18.292;2022-07-10T04:33:37;6.53;;;3.00;;
52610;SDS011;38727;40.130;18.292;2022-07-10T04:36:06;5.05;;;3.20;;
52610;SDS011;38727;40.130;18.292;2022-07-10T04:38:36;3.95;;;3.10;;
52610;SDS011;38727;40.130;18.292;2022-07-10T04:41:10;6.50;;;3.90;;
52610;SDS011;38727;40.130;18.292;2022-07-10T04:43:46;4.45;;;3.55;;
52610;SDS011;38727;40.130;18.292;2022-07-10T04:46:20;4.95;;;3.67;;
52610;SDS011;38727;40.130;18.292;2022-07-10T04:48:50;4.40;;;3.58;;
52610;SDS011;38727;40.130;18.292;2022-07-10T04:51:24;3.88;;;3.35;;
52610;SDS011;38727;40.130;18.292;2022-07-10T04:53:59;4.45;;;3.50;;
52610;SDS011;38727;40.130;18.292;2022-07-10T04:56:33;5.60;;;3.53;;
52610;SDS011;38727;40.130;18.292;2022-07-10T04:59:04;6.35;;;3.42;;
52610;SDS011;38727;40.130;18.292;2022-07-10T05:01:35;6.55;;;3.60;;
52610;SDS011;38727;40.130;18.292;2022-07-10T05:04:09;6.05;;;4.00;;
52610;SDS011;38727;40.130;18.292;2022-07-10T05:06:44;3.67;;;3.38;;
52610;SDS011;38727;40.130;18.292;2022-07-10T05:09:18;3.75;;;3.30;;
52610;SDS011;38727;40.130;18.292;2022-07-10T05:11:53;4.50;;;3.50;;
52610;SDS011;38727;40.130;18.292;2022-07-10T05:14:28;4.93;;;3.67;;
52610;SDS011;38727;40.130;18.292;2022-07-10T05:17:03;4.97;;;3.33;;
52610;SDS011;38727;40.130;18.292;2022-07-10T05:19:32;6.38;;;4.07;;
52610;SDS011;38727;40.130;18.292;2022-07-10T05:22:07;7.20;;;4.60;;
52610;SDS011;38727;40.130;18.292;2022-07-10T05:24:37;5.40;;;4.00;;
52610;SDS011;38727;40.130;18.292;2022-07-10T05:27:06;6.65;;;4.28;;
52610;SDS011;38727;40.130;18.292;2022-07-10T05:29:37;7.72;;;3.58;;
52610;SDS011;38727;40.130;18.292;2022-07-10T05:32:07;5.95;;;3.60;;
52610;SDS011;38727;40.130;18.292;2022-07-10T05:34:41;4.75;;;3.38;;
52610;SDS011;38727;40.130;18.292;2022-07-10T05:37:11;4.43;;;3.35;;
52610;SDS011;38727;40.130;18.292;2022-07-10T05:39:45;6.20;;;3.75;;
52610;SDS011;38727;40.130;18.292;2022-07-10T05:42:14;3.75;;;3.10;;
52610;SDS011;38727;40.130;18.292;2022-07-10T05:44:45;5.50;;;3.25;;
52610;SDS011;38727;40.130;18.292;2022-07-10T05:47:15;7.47;;;3.55;;
52610;SDS011;38727;40.130;18.292;2022-07-10T05:49:49;4.88;;;3.30;;
52610;SDS011;38727;40.130;18.292;2022-07-10T05:52:23;6.28;;;3.20;;
52610;SDS011;38727;40.130;18.292;2022-07-10T05:54:58;5.93;;;3.00;;
52610;SDS011;38727;40.130;18.292;2022-07-10T05:57:33;3.83;;;2.70;;
52610;SDS011;38727;40.130;18.292;2022-07-10T06:00:04;3.95;;;3.40;;
52610;SDS011;38727;40.130;18.292;2022-07-10T06:02:40;3.30;;;2.92;;
52610;SDS011;38727;40.130;18.292;2022-07-10T06:05:15;4.82;;;2.75;;
52610;SDS011;38727;40.130;18.292;2022-07-10T06:07:44;4.03;;;3.20;;
52610;SDS011;38727;40.130;18.292;2022-07-10T06:10:19;3.08;;;2.72;;
52610;SDS011;38727;40.130;18.292;2022-07-10T06:12:53;3.10;;;2.70;;
52610;SDS011;38727;40.130;18.292;2022-07-10T06:15:29;3.35;;;3.00;;
52610;SDS011;38727;40.130;18.292;2022-07-10T06:18:04;3.75;;;2.90;;
52610;SDS011;38727;40.130;18.292;2022-07-10T06:20:33;2.90;;;2.70;;
52610;SDS011;38727;40.130;18.292;2022-07-10T06:23:03;3.85;;;2.55;;
52610;SDS011;38727;40.130;18.292;2022-07-10T06:25:38;3.92;;;3.00;;
52610;SDS011;38727;40.130;18.292;2022-07-10T06:28:12;4.43;;;2.90;;
52610;SDS011;38727;40.130;18.292;2022-07-10T06:30:42;6.22;;;3.70;;
52610;SDS011;38727;40.130;18.292;2022-07-10T06:33:18;3.65;;;2.90;;
52610;SDS011;38727;40.130;18.292;2022-07-10T06:35:52;4.15;;;3.17;;
52610;SDS011;38727;40.130;18.292;2022-07-10T06:38:21;4.72;;;2.70;;
52610;SDS011;38727;40.130;18.292;2022-07-10T06:40:51;2.85;;;2.65;;
52610;SDS011;38727;40.130;18.292;2022-07-10T06:43:21;4.15;;;3.20;;
52610;SDS011;38727;40.130;18.292;2022-07-10T06:45:57;3.25;;;2.80;;
52610;SDS011;38727;40.130;18.292;2022-07-10T06:48:32;4.05;;;2.50;;
52610;SDS011;38727;40.130;18.292;2022-07-10T06:51:05;2.90;;;2.40;;
52610;SDS011;38727;40.130;18.292;2022-07-10T06:53:35;3.28;;;2.70;;
52610;SDS011;38727;40.130;18.292;2022-07-10T06:56:09;3.85;;;2.75;;
52610;SDS011;38727;40.130;18.292;2022-07-10T06:58:45;3.88;;;2.58;;
52610;SDS011;38727;40.130;18.292;2022-07-10T07:01:21;2.70;;;2.50;;
52610;SDS011;38727;40.130;18.292;2022-07-10T07:03:50;2.50;;;2.30;;
52610;SDS011;38727;40.130;18.292;2022-07-10T07:06:25;3.53;;;2.90;;
52610;SDS011;38727;40.130;18.292;2022-07-10T07:08:59;2.67;;;2.33;;
52610;SDS011;38727;40.130;18.292;2022-07-10T07:11:34;4.15;;;2.53;;
52610;SDS011;38727;40.130;18.292;2022-07-10T07:14:08;3.08;;;2.35;;
52610;SDS011;38727;40.130;18.292;2022-07-10T07:16:46;5.05;;;2.53;;
52610;SDS011;38727;40.130;18.292;2022-07-10T07:19:30;4.30;;;2.53;;
52610;SDS011;38727;40.130;18.292;2022-07-10T07:21:59;5.47;;;2.83;;
52610;SDS011;38727;40.130;18.292;2022-07-10T07:24:46;4.05;;;2.65;;
52610;SDS011;38727;40.130;18.292;2022-07-10T07:27:15;3.33;;;3.00;;
52610;SDS011;38727;40.130;18.292;2022-07-10T07:29:49;6.18;;;3.40;;
52610;SDS011;38727;40.130;18.292;2022-07-10T07:32:20;3.38;;;2.45;;
52610;SDS011;38727;40.130;18.292;2022-07-10T07:34:55;3.33;;;3.03;;
52610;SDS011;38727;40.130;18.292;2022-07-10T07:37:34;4.82;;;2.55;;
52610;SDS011;38727;40.130;18.292;2022-07-10T07:40:10;2.70;;;2.40;;
52610;SDS011;38727;40.130;18.292;2022-07-10T07:42:42;3.03;;;2.53;;
52610;SDS011;38727;40.130;18.292;2022-07-10T07:45:17;2.80;;;2.38;;
52610;SDS011;38727;40.130;18.292;2022-07-10T07:47:48;4.15;;;2.58;;
52610;SDS011;38727;40.130;18.292;2022-07-10T07:50:24;3.30;;;2.83;;
52610;SDS011;38727;40.130;18.292;2022-07-10T07:52:59;3.72;;;2.75;;
52610;SDS011;38727;40.130;18.292;2022-07-10T07:55:34;3.67;;;2.47;;
52610;SDS011;38727;40.130;18.292;2022-07-10T07:58:09;3.35;;;2.95;;
52610;SDS011;38727;40.130;18.292;2022-07-10T08:00:38;3.75;;;2.83;;
52610;SDS011;38727;40.130;18.292;2022-07-10T08:03:09;4.22;;;2.78;;
52610;SDS011;38727;40.130;18.292;2022-07-10T08:05:43;4.53;;;2.67;;
52610;SDS011;38727;40.130;18.292;2022-07-10T08:08:13;3.03;;;2.70;;
52610;SDS011;38727;40.130;18.292;2022-07-10T08:10:42;15.15;;;6.55;;
52610;SDS011;38727;40.130;18.292;2022-07-10T08:13:19;8.98;;;3.70;;
52610;SDS011;38727;40.130;18.292;2022-07-10T08:15:52;4.13;;;2.88;;
52610;SDS011;38727;40.130;18.292;2022-07-10T08:18:26;5.25;;;2.75;;
52610;SDS011;38727;40.130;18.292;2022-07-10T08:21:00;3.15;;;2.67;;
52610;SDS011;38727;40.130;18.292;2022-07-10T08:23:35;4.97;;;2.75;;
52610;SDS011;38727;40.130;18.292;2022-07-10T08:26:06;5.70;;;3.30;;
52610;SDS011;38727;40.130;18.292;2022-07-10T08:28:35;3.22;;;2.88;;
52610;SDS011;38727;40.130;18.292;2022-07-10T08:31:05;5.05;;;3.97;;
52610;SDS011;38727;40.130;18.292;2022-07-10T08:33:41;6.90;;;4.57;;
52610;SDS011;38727;40.130;18.292;2022-07-10T08:36:10;4.25;;;3.30;;
52610;SDS011;38727;40.130;18.292;2022-07-10T08:38:47;10.02;;;4.30;;
52610;SDS011;38727;40.130;18.292;2022-07-10T08:41:22;3.17;;;2.88;;
52610;SDS011;38727;40.130;18.292;2022-07-10T08:44:01;5.80;;;3.05;;
52610;SDS011;38727;40.130;18.292;2022-07-10T08:46:31;3.10;;;2.80;;
52610;SDS011;38727;40.130;18.292;2022-07-10T08:49:08;3.83;;;3.22;;
52610;SDS011;38727;40.130;18.292;2022-07-10T08:51:45;3.10;;;2.55;;
52610;SDS011;38727;40.130;18.292;2022-07-10T08:54:20;4.00;;;2.83;;
52610;SDS011;38727;40.130;18.292;2022-07-10T08:56:55;2.83;;;2.58;;
52610;SDS011;38727;40.130;18.292;2022-07-10T08:59:31;3.58;;;2.63;;
52610;SDS011;38727;40.130;18.292;2022-07-10T09:02:01;3.28;;;2.92;;
52610;SDS011;38727;40.130;18.292;2022-07-10T09:04:37;4.22;;;3.10;;
52610;SDS011;38727;40.130;18.292;2022-07-10T09:07:06;2.88;;;2.33;;
52610;SDS011;38727;40.130;18.292;2022-07-10T09:09:50;3.22;;;2.92;;
52610;SDS011;38727;40.130;18.292;2022-07-10T09:12:26;4.07;;;3.67;;
52610;SDS011;38727;40.130;18.292;2022-07-10T09:15:14;4.15;;;2.63;;
52610;SDS011;38727;40.130;18.292;2022-07-10T09:17:50;2.65;;;2.42;;
52610;SDS011;38727;40.130;18.292;2022-07-10T09:20:31;4.72;;;2.53;;
52610;SDS011;38727;40.130;18.292;2022-07-10T09:23:16;3.00;;;2.22;;
52610;SDS011;38727;40.130;18.292;2022-07-10T09:25:51;2.55;;;2.35;;
52610;SDS011;38727;40.130;18.292;2022-07-10T09:28:26;3.08;;;2.78;;
52610;SDS011;38727;40.130;18.292;2022-07-10T09:31:01;4.20;;;2.72;;
52610;SDS011;38727;40.130;18.292;2022-07-10T09:33:30;3.22;;;2.92;;
52610;SDS011;38727;40.130;18.292;2022-07-10T09:36:04;3.53;;;2.78;;
52610;SDS011;38727;40.130;18.292;2022-07-10T09:38:50;4.50;;;3.08;;
52610;SDS011;38727;40.130;18.292;2022-07-10T09:41:29;3.28;;;2.83;;
52610;SDS011;38727;40.130;18.292;2022-07-10T09:44:05;3.58;;;2.70;;
52610;SDS011;38727;40.130;18.292;2022-07-10T09:46:36;3.28;;;2.88;;
52610;SDS011;38727;40.130;18.292;2022-07-10T09:49:13;7.10;;;4.57;;
52610;SDS011;38727;40.130;18.292;2022-07-10T09:51:49;3.92;;;3.15;;
52610;SDS011;38727;40.130;18.292;2022-07-10T09:54:19;6.88;;;5.68;;
52610;SDS011;38727;40.130;18.292;2022-07-10T09:56:55;11.05;;;8.48;;
52610;SDS011;38727;40.130;18.292;2022-07-10T09:59:24;3.53;;;3.22;;
52610;SDS011;38727;40.130;18.292;2022-07-10T10:02:03;3.38;;;2.88;;
52610;SDS011;38727;40.130;18.292;2022-07-10T10:04:35;3.70;;;2.40;;
52610;SDS011;38727;40.130;18.292;2022-07-10T10:07:13;3.28;;;2.90;;
52610;SDS011;38727;40.130;18.292;2022-07-10T10:09:51;3.33;;;2.95;;
52610;SDS011;38727;40.130;18.292;2022-07-10T10:12:30;3.22;;;2.90;;
52610;SDS011;38727;40.130;18.292;2022-07-10T10:15:11;10.82;;;9.65;;
52610;SDS011;38727;40.130;18.292;2022-07-10T10:17:45;12.90;;;10.38;;
52610;SDS011;38727;40.130;18.292;2022-07-10T10:20:17;5.05;;;4.28;;
52610;SDS011;38727;40.130;18.292;2022-07-10T10:23:16;3.58;;;3.28;;
52610;SDS011;38727;40.130;18.292;2022-07-10T10:25:53;5.45;;;4.07;;
52610;SDS011;38727;40.130;18.292;2022-07-10T10:28:24;3.63;;;3.03;;
52610;SDS011;38727;40.130;18.292;2022-07-10T10:30:55;3.92;;;3.05;;
52610;SDS011;38727;40.130;18.292;2022-07-10T10:33:40;7.93;;;5.10;;
52610;SDS011;38727;40.130;18.292;2022-07-10T10:39:19;4.22;;;3.50;;
52610;SDS011;38727;40.130;18.292;2022-07-10T10:41:54;3.35;;;3.05;;
52610;SDS011;38727;40.130;18.292;2022-07-10T10:44:28;3.40;;;3.10;;
52610;SDS011;38727;40.130;18.292;2022-07-10T10:47:04;3.15;;;2.92;;
52610;SDS011;38727;40.130;18.292;2022-07-10T10:49:52;6.03;;;4.15;;
52610;SDS011;38727;40.130;18.292;2022-07-10T10:52:29;5.07;;;3.45;;
52610;SDS011;38727;40.130;18.292;2022-07-10T10:55:06;3.00;;;2.78;;
52610;SDS011;38727;40.130;18.292;2022-07-10T10:57:41;3.63;;;3.30;;
52610;SDS011;38727;40.130;18.292;2022-07-10T11:00:34;4.78;;;4.15;;
52610;SDS011;38727;40.130;18.292;2022-07-10T11:03:13;5.18;;;3.28;;
52610;SDS011;38727;40.130;18.292;2022-07-10T11:05:50;4.28;;;3.80;;
52610;SDS011;38727;40.130;18.292;2022-07-10T11:08:41;3.63;;;3.17;;
52610;SDS011;38727;40.130;18.292;2022-07-10T11:11:38;6.22;;;3.50;;
52610;SDS011;38727;40.130;18.292;2022-07-10T11:14:15;4.72;;;3.30;;
52610;SDS011;38727;40.130;18.292;2022-07-10T11:16:53;4.93;;;3.20;;
52610;SDS011;38727;40.130;18.292;2022-07-10T11:19:23;3.70;;;3.40;;
52610;SDS011;38727;40.130;18.292;2022-07-10T11:25:28;4.68;;;3.10;;
52610;SDS011;38727;40.130;18.292;2022-07-10T11:28:16;5.93;;;4.10;;
52610;SDS011;38727;40.130;18.292;2022-07-10T11:30:54;6.20;;;4.47;;
52610;SDS011;38727;40.130;18.292;2022-07-10T11:33:29;4.78;;;4.00;;
52610;SDS011;38727;40.130;18.292;2022-07-10T11:36:16;8.60;;;3.00;;
52610;SDS011;38727;40.130;18.292;2022-07-10T11:38:55;2.95;;;2.63;;
52610;SDS011;38727;40.130;18.292;2022-07-10T11:41:32;3.35;;;2.95;;
52610;SDS011;38727;40.130;18.292;2022-07-10T11:44:12;5.28;;;2.92;;
52610;SDS011;38727;40.130;18.292;2022-07-10T11:46:48;4.43;;;2.70;;
52610;SDS011;38727;40.130;18.292;2022-07-10T11:49:25;3.65;;;3.33;;
52610;SDS011;38727;40.130;18.292;2022-07-10T11:52:00;3.00;;;2.70;;
52610;SDS011;38727;40.130;18.292;2022-07-10T11:54:35;4.40;;;3.45;;
52610;SDS011;38727;40.130;18.292;2022-07-10T11:57:07;4.15;;;3.10;;
52610;SDS011;38727;40.130;18.292;2022-07-10T11:59:43;5.70;;;2.72;;
52610;SDS011;38727;40.130;18.292;2022-07-10T12:02:21;3.50;;;3.20;;
52610;SDS011;38727;40.130;18.292;2022-07-10T12:04:56;3.15;;;2.63;;
52610;SDS011;38727;40.130;18.292;2022-07-10T12:07:30;3.33;;;2.90;;
52610;SDS011;38727;40.130;18.292;2022-07-10T12:10:00;5.75;;;3.22;;
52610;SDS011;38727;40.130;18.292;2022-07-10T12:12:30;4.63;;;3.38;;
52610;SDS011;38727;40.130;18.292;2022-07-10T12:15:07;3.35;;;3.05;;
52610;SDS011;38727;40.130;18.292;2022-07-10T12:17:49;4.35;;;3.85;;
52610;SDS011;38727;40.130;18.292;2022-07-10T12:20:19;4.57;;;3.17;;
52610;SDS011;38727;40.130;18.292;2022-07-10T12:22:48;3.70;;;2.85;;
52610;SDS011;38727;40.130;18.292;2022-07-10T12:25:26;5.63;;;3.20;;
52610;SDS011;38727;40.130;18.292;2022-07-10T12:28:00;3.35;;;3.03;;
52610;SDS011;38727;40.130;18.292;2022-07-10T12:30:40;3.50;;;2.78;;
52610;SDS011;38727;40.130;18.292;2022-07-10T12:33:18;4.28;;;2.97;;
52610;SDS011;38727;40.130;18.292;2022-07-10T12:35:54;4.65;;;3.30;;
52610;SDS011;38727;40.130;18.292;2022-07-10T12:38:30;5.15;;;2.80;;
52610;SDS011;38727;40.130;18.292;2022-07-10T12:41:06;5.78;;;3.28;;
52610;SDS011;38727;40.130;18.292;2022-07-10T12:43:42;3.97;;;2.63;;
52610;SDS011;38727;40.130;18.292;2022-07-10T12:46:16;3.88;;;2.72;;
52610;SDS011;38727;40.130;18.292;2022-07-10T12:49:02;4.97;;;3.17;;
52610;SDS011;38727;40.130;18.292;2022-07-10T12:51:34;2.78;;;2.58;;
52610;SDS011;38727;40.130;18.292;2022-07-10T12:56:59;4.00;;;2.55;;
52610;SDS011;38727;40.130;18.292;2022-07-10T12:59:34;2.90;;;2.60;;
52610;SDS011;38727;40.130;18.292;2022-07-10T13:02:17;3.42;;;2.65;;
52610;SDS011;38727;40.130;18.292;2022-07-10T13:04:52;3.60;;;2.70;;
52610;SDS011;38727;40.130;18.292;2022-07-10T13:07:30;6.60;;;2.65;;
52610;SDS011;38727;40.130;18.292;2022-07-10T13:10:06;3.45;;;2.40;;
52610;SDS011;38727;40.130;18.292;2022-07-10T13:12:36;2.35;;;2.10;;
52610;SDS011;38727;40.130;18.292;2022-07-10T13:15:11;2.80;;;2.30;;
52610;SDS011;38727;40.130;18.292;2022-07-10T13:17:53;3.58;;;2.08;;
52610;SDS011;38727;40.130;18.292;2022-07-10T13:20:28;3.17;;;2.88;;
52610;SDS011;38727;40.130;18.292;2022-07-10T13:23:02;2.58;;;2.38;;
52610;SDS011;38727;40.130;18.292;2022-07-10T13:25:37;2.50;;;2.30;;
52610;SDS011;38727;40.130;18.292;2022-07-10T13:28:12;2.65;;;2.00;;
52610;SDS011;38727;40.130;18.292;2022-07-10T13:30:41;2.00;;;1.90;;
52610;SDS011;38727;40.130;18.292;2022-07-10T13:33:18;6.68;;;2.10;;
52610;SDS011;38727;40.130;18.292;2022-07-10T13:35:52;2.40;;;1.92;;
52610;SDS011;38727;40.130;18.292;2022-07-10T13:38:22;3.20;;;2.35;;
52610;SDS011;38727;40.130;18.292;2022-07-10T13:40:57;2.05;;;1.70;;
52610;SDS011;38727;40.130;18.292;2022-07-10T13:43:32;2.45;;;1.95;;
52610;SDS011;38727;40.130;18.292;2022-07-10T13:46:07;3.50;;;2.38;;
52610;SDS011;38727;40.130;18.292;2022-07-10T13:48:43;3.50;;;2.25;;
52610;SDS011;38727;40.130;18.292;2022-07-10T13:51:12;2.97;;;1.95;;
52610;SDS011;38727;40.130;18.292;2022-07-10T13:53:47;3.83;;;2.10;;
52610;SDS011;38727;40.130;18.292;2022-07-10T13:56:21;3.15;;;1.92;;
52610;SDS011;38727;40.130;18.292;2022-07-10T13:58:56;3.35;;;2.47;;
52610;SDS011;38727;40.130;18.292;2022-07-10T14:01:25;1.90;;;1.67;;
52610;SDS011;38727;40.130;18.292;2022-07-10T14:04:01;3.10;;;2.30;;
52610;SDS011;38727;40.130;18.292;2022-07-10T14:06:35;4.97;;;2.53;;
52610;SDS011;38727;40.130;18.292;2022-07-10T14:09:10;3.45;;;2.17;;
52610;SDS011;38727;40.130;18.292;2022-07-10T14:11:44;2.25;;;1.50;;
52610;SDS011;38727;40.130;18.292;2022-07-10T14:14:13;2.03;;;1.48;;
52610;SDS011;38727;40.130;18.292;2022-07-10T14:16:42;3.10;;;2.10;;
52610;SDS011;38727;40.130;18.292;2022-07-10T14:19:18;3.10;;;1.95;;
52610;SDS011;38727;40.130;18.292;2022-07-10T14:21:47;4.13;;;1.80;;
52610;SDS011;38727;40.130;18.292;2022-07-10T14:24:22;2.55;;;1.70;;
52610;SDS011;38727;40.130;18.292;2022-07-10T14:26:51;4.38;;;2.10;;
52610;SDS011;38727;40.130;18.292;2022-07-10T14:29:21;3.92;;;1.77;;
52610;SDS011;38727;40.130;18.292;2022-07-10T14:31:56;1.92;;;1.60;;
52610;SDS011;38727;40.130;18.292;2022-07-10T14:34:32;2.45;;;1.80;;
52610;SDS011;38727;40.130;18.292;2022-07-10T14:37:06;3.10;;;2.13;;
52610;SDS011;38727;40.130;18.292;2022-07-10T14:39:35;4.03;;;1.58;;
52610;SDS011;38727;40.130;18.292;2022-07-10T14:42:10;1.63;;;1.40;;
52610;SDS011;38727;40.130;18.292;2022-07-10T14:44:44;2.15;;;1.60;;
52610;SDS011;38727;40.130;18.292;2022-07-10T14:47:18;5.20;;;1.98;;
52610;SDS011;38727;40.130;18.292;2022-07-10T14:49:54;3.03;;;1.60;;
52610;SDS011;38727;40.130;18.292;2022-07-10T14:52:29;3.13;;;1.63;;
52610;SDS011;38727;40.130;18.292;2022-07-10T14:55:00;3.65;;;1.63;;
52610;SDS011;38727;40.130;18.292;2022-07-10T14:57:30;2.45;;;1.52;;
52610;SDS011;38727;40.130;18.292;2022-07-10T14:59:59;2.50;;;1.45;;
52610;SDS011;38727;40.130;18.292;2022-07-10T15:02:28;3.35;;;2.00;;
52610;SDS011;38727;40.130;18.292;2022-07-10T15:05:05;2.28;;;1.58;;
52610;SDS011;38727;40.130;18.292;2022-07-10T15:07:35;1.88;;;1.60;;
52610;SDS011;38727;40.130;18.292;2022-07-10T15:10:10;3.88;;;2.30;;
52610;SDS011;38727;40.130;18.292;2022-07-10T15:12:45;2.72;;;2.20;;
52610;SDS011;38727;40.130;18.292;2022-07-10T15:15:19;2.08;;;1.88;;
52610;SDS011;38727;40.130;18.292;2022-07-10T15:17:53;2.03;;;1.60;;
52610;SDS011;38727;40.130;18.292;2022-07-10T15:20:24;2.72;;;1.73;;
52610;SDS011;38727;40.130;18.292;2022-07-10T15:22:58;2.70;;;2.08;;